createdAt,value
2022-07-27T00:01:01.137Z,84.72
2022-07-27T00:05:50.712Z,84.47
2022-07-27T00:10:40.728Z,84.79
2022-07-27T00:15:33.068Z,84.50
2022-07-27T00:20:22.833Z,85.01
2022-07-27T00:25:16.919Z,85.12
2022-07-27T00:30:06.705Z,85.37
2022-07-27T00:34:58.771Z,85.85
2022-07-27T00:39:48.414Z,86.66
2022-07-27T00:44:38.121Z,86.14
2022-07-27T00:49:29.745Z,86.26
2022-07-27T00:54:22.296Z,86.77
2022-07-27T00:59:13.455Z,87.90
2022-07-27T01:04:03.228Z,87.94
2022-07-27T01:09:14.260Z,88.24
2022-07-27T01:14:06.469Z,88.99
2022-07-27T01:18:55.855Z,88.91
2022-07-27T01:23:47.984Z,89.08
2022-07-27T01:28:37.404Z,91.39
2022-07-27T01:33:28.603Z,90.64
2022-07-27T01:38:18.108Z,90.17
2022-07-27T01:43:10.195Z,87.69
2022-07-27T01:47:59.572Z,88.81
2022-07-27T01:52:49.176Z,88.43
2022-07-27T01:57:39.025Z,87.63
2022-07-27T02:02:31.195Z,87.57
2022-07-27T02:07:20.675Z,88.37
2022-07-27T02:12:22.756Z,87.92
2022-07-27T02:17:12.918Z,87.97
2022-07-27T02:22:07.261Z,88.22
2022-07-27T02:26:56.691Z,88.21
2022-07-27T02:31:46.617Z,89.21
2022-07-27T02:36:36.022Z,88.83
2022-07-27T02:41:28.206Z,89.66
2022-07-27T02:46:17.724Z,90.40
2022-07-27T02:51:07.275Z,91.13
2022-07-27T02:55:56.752Z,90.14
2022-07-27T03:00:49.041Z,90.41
2022-07-27T03:05:39.496Z,90.94
2022-07-27T03:10:29.015Z,91.08
2022-07-27T03:15:18.585Z,91.83
2022-07-27T03:20:12.148Z,92.59
2022-07-27T03:25:01.544Z,92.70
2022-07-27T03:29:51.022Z,92.96
2022-07-27T03:34:40.377Z,92.75
2022-07-27T03:39:32.580Z,92.93
2022-07-27T03:44:22.012Z,93.18
2022-07-27T03:49:14.903Z,93.69
2022-07-27T03:54:05.185Z,93.68
2022-07-27T03:58:57.481Z,94.84
2022-07-27T04:03:47.571Z,95.25
2022-07-27T04:08:37.881Z,94.52
2022-07-27T04:13:29.481Z,98.10
2022-07-27T04:18:22.691Z,98.07
2022-07-27T04:23:12.413Z,97.54
2022-07-27T04:28:01.850Z,97.91
2022-07-27T04:32:51.449Z,96.54
2022-07-27T04:37:58.521Z,93.84
2022-07-27T04:42:49.833Z,92.12
2022-07-27T04:47:39.450Z,91.46
2022-07-27T04:52:28.901Z,92.78
2022-07-27T04:57:21.044Z,93.61
2022-07-27T05:02:10.420Z,93.77
2022-07-27T05:06:59.887Z,93.04
2022-07-27T05:11:51.039Z,93.09
2022-07-27T05:16:44.467Z,93.02
2022-07-27T05:21:34.077Z,91.80
2022-07-27T05:26:25.559Z,90.44
2022-07-27T05:31:16.469Z,89.36
2022-07-27T05:36:10.702Z,89.13
2022-07-27T05:41:01.247Z,89.69
2022-07-27T05:45:52.347Z,89.77
2022-07-27T05:50:41.932Z,89.75
2022-07-27T05:55:38.492Z,90.36
2022-07-27T06:00:28.940Z,91.52
2022-07-27T06:05:18.336Z,91.21
2022-07-27T06:10:09.571Z,90.72
2022-07-27T06:15:01.956Z,92.51
2022-07-27T06:19:51.447Z,90.67
2022-07-27T06:24:57.289Z,91.98
2022-07-27T06:29:46.932Z,93.30
2022-07-27T06:34:46.783Z,91.15
2022-07-27T06:39:39.597Z,88.81
2022-07-27T06:44:29.071Z,88.22
2022-07-27T06:49:18.809Z,86.74
2022-07-27T06:54:11.455Z,87.61
2022-07-27T06:59:01.264Z,84.51
2022-07-27T07:03:51.019Z,84.11
2022-07-27T07:08:40.461Z,84.72
2022-07-27T07:13:37.273Z,83.30
2022-07-27T07:18:27.951Z,82.90
2022-07-27T07:23:18.707Z,82.25
2022-07-27T07:28:09.552Z,82.57
2022-07-27T07:33:01.894Z,83.06
2022-07-27T07:37:51.993Z,85.79
2022-07-27T07:42:55.335Z,88.70
2022-07-27T07:47:44.852Z,87.95
2022-07-27T07:52:37.433Z,87.03
2022-07-27T07:57:28.149Z,86.56
2022-07-27T08:02:17.764Z,84.03
2022-07-27T08:07:07.816Z,83.73
2022-07-27T08:11:59.941Z,83.71
2022-07-27T08:16:49.414Z,84.41
2022-07-27T08:21:42.009Z,84.58
2022-07-27T08:26:31.462Z,84.31
2022-07-27T08:31:26.526Z,84.25
2022-07-27T08:36:35.455Z,83.97
2022-07-27T08:41:26.929Z,84.26
2022-07-27T08:46:20.099Z,81.24
2022-07-27T08:51:12.601Z,78.28
2022-07-27T08:56:02.501Z,73.05
2022-07-27T09:00:52.516Z,73.85
2022-07-27T09:05:44.188Z,68.32
2022-07-27T09:10:38.397Z,70.95
2022-07-27T09:15:34.527Z,68.69
2022-07-27T09:20:24.554Z,66.83
2022-07-27T09:25:15.228Z,56.64
2022-07-27T09:30:09.036Z,54.69
2022-07-27T09:34:58.526Z,55.48
2022-07-27T09:39:48.122Z,53.56
2022-07-27T09:44:43.651Z,54.77
2022-07-27T09:49:37.459Z,51.35
2022-07-27T09:54:27.532Z,56.33
2022-07-27T09:59:20.806Z,57.99
2022-07-27T10:04:11.692Z,61.33
2022-07-27T10:09:04.752Z,60.13
2022-07-27T10:13:55.435Z,60.50
2022-07-27T10:18:55.585Z,59.60
2022-07-27T10:23:56.178Z,59.11
2022-07-27T10:28:58.837Z,60.91
2022-07-27T10:33:49.640Z,57.09
2022-07-27T10:38:48.743Z,56.14
2022-07-27T10:43:38.737Z,54.46
2022-07-27T10:48:47.801Z,54.88
2022-07-27T10:54:09.388Z,50.52
2022-07-27T10:58:52.535Z,53.95
2022-07-27T11:03:49.532Z,54.26
2022-07-27T11:08:47.068Z,56.76
2022-07-27T11:13:39.063Z,54.05
2022-07-27T11:18:29.362Z,49.84
2022-07-27T11:23:50.457Z,53.14
2022-07-27T11:28:34.945Z,56.93
2022-07-27T11:33:24.621Z,58.86
2022-07-27T11:38:14.083Z,59.78
2022-07-27T11:43:07.455Z,60.68
2022-07-27T11:48:02.099Z,61.18
2022-07-27T11:53:01.533Z,61.18
2022-07-27T11:57:51.403Z,61.91
2022-07-27T12:02:50.361Z,61.13
2022-07-27T12:07:41.876Z,59.63
2022-07-27T12:12:32.021Z,59.96
2022-07-27T12:17:23.795Z,57.80
2022-07-27T12:22:16.026Z,58.83
2022-07-27T12:27:09.984Z,59.91
2022-07-27T12:32:04.150Z,57.30
2022-07-27T12:36:53.649Z,55.22
2022-07-27T12:41:46.121Z,54.50
2022-07-27T12:46:35.688Z,54.82
2022-07-27T12:51:26.483Z,54.25
2022-07-27T12:56:16.038Z,54.55
2022-07-27T13:01:19.734Z,54.63
2022-07-27T13:06:13.073Z,52.29
2022-07-27T13:11:02.730Z,53.47
2022-07-27T13:15:52.137Z,50.81
2022-07-27T13:20:44.904Z,52.56
2022-07-27T13:25:37.266Z,50.61
2022-07-27T13:30:31.084Z,48.97
2022-07-27T13:35:20.596Z,50.14
2022-07-27T13:40:13.191Z,51.92
2022-07-27T13:45:09.767Z,53.53
2022-07-27T13:50:00.593Z,56.34
2022-07-27T13:54:50.130Z,56.83
2022-07-27T13:59:48.011Z,56.72
2022-07-27T14:04:38.339Z,55.28
2022-07-27T14:09:57.735Z,57.17
2022-07-27T14:14:49.861Z,56.82
2022-07-27T14:19:39.360Z,56.88
2022-07-27T14:24:28.838Z,58.12
2022-07-27T14:29:18.362Z,57.55
2022-07-27T14:34:10.688Z,54.96
2022-07-27T14:39:00.138Z,54.79
2022-07-27T14:43:51.199Z,55.43
2022-07-27T14:53:52.757Z,53.12
2022-07-27T14:58:44.044Z,53.95
2022-07-27T15:03:33.511Z,53.30
2022-07-27T15:08:24.661Z,50.08
2022-07-27T15:13:16.829Z,51.54
2022-07-27T15:18:07.991Z,53.59
2022-07-27T15:22:58.963Z,53.45
2022-07-27T15:27:48.533Z,55.46
2022-07-27T15:32:40.838Z,53.17
2022-07-27T15:37:30.368Z,54.69
2022-07-27T15:42:22.365Z,55.06
2022-07-27T15:47:12.934Z,54.02
2022-07-27T15:52:05.055Z,55.04
2022-07-27T15:56:54.496Z,55.95
2022-07-27T16:01:44.134Z,53.22
2022-07-27T16:06:39.042Z,54.66
2022-07-27T16:11:32.420Z,52.93
2022-07-27T16:16:25.221Z,52.45
2022-07-27T16:21:14.694Z,54.32
2022-07-27T16:26:05.896Z,53.91
2022-07-27T16:30:58.570Z,54.11
2022-07-27T16:35:48.046Z,54.38
2022-07-27T16:40:37.821Z,54.53
2022-07-27T16:45:27.597Z,55.11
2022-07-27T16:50:20.082Z,54.19
2022-07-27T16:55:16.230Z,54.52
2022-07-27T17:00:08.033Z,56.62
2022-07-27T17:04:58.015Z,55.24
2022-07-27T17:09:50.188Z,54.61
2022-07-27T17:14:44.318Z,56.56
2022-07-27T17:19:34.440Z,55.89
2022-07-27T17:24:24.980Z,57.32
2022-07-27T17:29:17.385Z,57.86
2022-07-27T17:34:06.970Z,57.10
2022-07-27T17:38:56.417Z,58.86
2022-07-27T17:43:46.276Z,59.17
2022-07-27T17:48:38.645Z,59.83
2022-07-27T17:53:31.575Z,60.63
2022-07-27T17:58:21.267Z,61.58
2022-07-27T18:03:12.938Z,62.82
2022-07-27T18:08:10.859Z,62.35
2022-07-27T18:13:00.380Z,62.48
2022-07-27T18:17:50.137Z,62.90
2022-07-27T18:22:39.990Z,63.49
2022-07-27T18:27:34.884Z,64.27
2022-07-27T18:32:27.202Z,64.55
2022-07-27T18:37:17.953Z,65.77
2022-07-27T18:42:12.050Z,66.42
2022-07-27T18:47:04.369Z,65.33
2022-07-27T18:51:54.063Z,65.86
2022-07-27T18:56:43.650Z,66.06
2022-07-27T19:01:34.041Z,66.99
2022-07-27T19:06:28.658Z,66.57
2022-07-27T19:11:21.734Z,66.57
2022-07-27T19:16:11.613Z,66.60
2022-07-27T19:21:02.936Z,66.96
2022-07-27T19:26:00.835Z,67.42
2022-07-27T19:30:50.493Z,67.82
2022-07-27T19:35:40.523Z,68.08
2022-07-27T19:40:46.153Z,68.84
2022-07-27T19:45:42.117Z,68.42
2022-07-27T19:50:31.906Z,68.36
2022-07-27T19:55:21.718Z,70.29
2022-07-27T20:00:11.928Z,70.35
2022-07-27T20:05:04.865Z,71.60
2022-07-27T20:09:55.232Z,72.11
2022-07-27T20:14:48.152Z,70.79
2022-07-27T20:19:49.249Z,71.98
2022-07-27T20:24:41.299Z,74.25
2022-07-27T20:29:31.747Z,74.59
2022-07-27T20:34:25.678Z,75.62
2022-07-27T20:39:17.924Z,76.52
2022-07-27T20:44:16.128Z,77.12
2022-07-27T20:49:06.337Z,77.14
2022-07-27T20:53:59.285Z,79.48
2022-07-27T20:58:49.801Z,79.02
2022-07-27T21:03:44.208Z,79.61
2022-07-27T21:08:34.571Z,72.91
2022-07-27T21:13:28.255Z,73.16
2022-07-27T21:18:23.443Z,74.10
2022-07-27T21:23:30.714Z,73.98
2022-07-27T21:28:25.204Z,76.73
2022-07-27T21:33:18.677Z,76.48
2022-07-27T21:38:09.645Z,77.21
2022-07-27T21:43:03.275Z,76.09
2022-07-27T21:47:53.114Z,76.24
2022-07-27T21:52:42.952Z,75.72
2022-07-27T21:57:33.213Z,76.14
2022-07-27T22:02:33.456Z,76.22
2022-07-27T22:07:24.298Z,76.35
2022-07-27T22:12:17.854Z,76.88
2022-07-27T22:17:13.847Z,76.76
2022-07-27T22:22:07.484Z,77.11
2022-07-27T22:26:58.005Z,76.63
2022-07-27T22:31:51.352Z,76.12
2022-07-27T22:36:41.924Z,75.83
2022-07-27T22:41:35.099Z,75.99
2022-07-27T22:46:26.218Z,76.23
2022-07-27T22:51:16.486Z,76.26
2022-07-27T22:56:06.282Z,75.68
2022-07-27T23:01:00.087Z,75.39
2022-07-27T23:06:00.037Z,75.21
2022-07-27T23:10:51.024Z,75.21
2022-07-27T23:15:42.007Z,75.15
2022-07-27T23:20:35.860Z,75.01
2022-07-27T23:25:36.416Z,74.72
2022-07-27T23:30:28.966Z,74.03
2022-07-27T23:35:20.214Z,74.27
2022-07-27T23:40:16.427Z,73.59
2022-07-27T23:45:08.651Z,73.86
2022-07-27T23:49:59.021Z,74.10
2022-07-27T23:54:49.426Z,74.63
2022-07-27T23:59:42.900Z,75.03
